Time;durP1;ratioP1;P1;durP2;ratioP2;P2;SDS_P1;SDS_P2;PMS_P1;PMS_P2;Temp;Humidity;BMP_temperature;BMP_pressure;BME280_temperature;BME280_humidity;BME280_pressure;Samples;Min_cycle;Max_cycle;Signal;HPM_P1;HPM_P2
2023/06/12 00:01:12;;;;;;;5.53;4.93;;;19.40;90.20;;;;;;5057501;28;20204;-81
2023/06/12 00:03:40;;;;;;;5.65;5.13;;;19.30;99.90;;;;;;5057279;28;20226;-81
2023/06/12 00:06:09;;;;;;;5.85;4.60;;;19.20;99.90;;;;;;5039257;28;20597;-80
2023/06/12 00:08:35;;;;;;;5.18;4.75;;;19.00;1.00;;;;;;5039798;28;20270;-81
2023/06/12 00:11:01;;;;;;;5.15;4.65;;;19.00;1.00;;;;;;5057412;28;20229;-80
2023/06/12 00:13:27;;;;;;;5.45;4.95;;;18.90;1.00;;;;;;5057056;28;20169;-80
2023/06/12 00:15:53;;;;;;;5.45;4.82;;;18.80;1.00;;;;;;5057256;28;20189;-81
2023/06/12 00:18:18;;;;;;;6.47;4.95;;;18.80;1.00;;;;;;5039241;28;20174;-81
2023/06/12 00:20:44;;;;;;;5.57;5.07;;;18.70;1.00;;;;;;5039072;28;20180;-81
2023/06/12 00:23:10;;;;;;;5.28;4.78;;;18.50;1.00;;;;;;5057235;28;20166;-81
2023/06/12 00:25:37;;;;;;;7.20;5.47;;;18.20;1.00;;;;;;5039037;28;20288;-81
2023/06/12 00:28:03;;;;;;;5.97;5.05;;;18.00;1.00;;;;;;5038865;28;20240;-81
2023/06/12 00:30:28;;;;;;;5.37;4.87;;;17.80;1.00;;;;;;5056230;28;20603;-80
2023/06/12 00:32:54;;;;;;;5.80;5.07;;;17.80;1.00;;;;;;5056698;28;20180;-80
2023/06/12 00:35:19;;;;;;;5.20;4.70;;;18.00;1.00;;;;;;5056783;28;20181;-80
2023/06/12 00:37:48;;;;;;;5.60;5.10;;;17.90;1.00;;;;;;5038377;28;20170;-80
2023/06/12 00:40:14;;;;;;;5.23;4.80;;;17.90;1.00;;;;;;5056133;28;20782;-81
2023/06/12 00:42:45;;;;;;;5.70;4.70;;;17.90;1.00;;;;;;5038578;28;20234;-80
2023/06/12 00:45:16;;;;;;;5.57;4.80;;;17.90;1.00;;;;;;5056520;28;20201;-80
2023/06/12 00:47:45;;;;;;;5.13;4.60;;;17.90;99.90;;;;;;5056643;28;20663;-80
2023/06/12 00:50:11;;;;;;;6.23;5.03;;;17.90;1.00;;;;;;5056205;28;20197;-80
2023/06/12 00:52:41;;;;;;;5.77;5.17;;;17.80;1.00;;;;;;5056650;28;20754;-81
2023/06/12 00:55:07;;;;;;;5.70;5.10;;;17.60;1.00;;;;;;5055855;28;20205;-80
2023/06/12 00:57:32;;;;;;;5.43;4.70;;;17.60;1.00;;;;;;5056129;28;20200;-80
2023/06/12 01:00:00;;;;;;;5.50;4.97;;;17.50;99.90;;;;;;5038393;28;20185;-80
2023/06/12 01:02:27;;;;;;;5.80;5.20;;;17.50;96.20;;;;;;5038419;28;20180;-80
2023/06/12 01:04:53;;;;;;;5.40;4.90;;;17.50;99.90;;;;;;5037977;28;20221;-81
2023/06/12 01:07:29;;;;;;;5.70;5.10;;;17.20;1.00;;;;;;5038082;28;20185;-80
2023/06/12 01:10:03;;;;;;;6.20;4.90;;;17.20;99.90;;;;;;5055650;28;20276;-80
2023/06/12 01:12:29;;;;;;;5.80;5.20;;;17.20;1.00;;;;;;5037889;28;20252;-81
2023/06/12 01:14:55;;;;;;;5.87;4.80;;;17.10;99.90;;;;;;5054726;28;20621;-80
2023/06/12 01:17:20;;;;;;;6.17;5.40;;;17.10;1.00;;;;;;5055937;28;20253;-80
2023/06/12 01:19:46;;;;;;;5.50;5.00;;;17.20;1.00;;;;;;5038071;28;20551;-80
2023/06/12 01:22:14;;;;;;;5.73;5.20;;;17.20;80.60;;;;;;5038053;28;20174;-80
2023/06/12 01:24:57;;;;;;;5.97;5.23;;;17.10;99.90;;;;;;5056141;28;20194;-80
2023/06/12 01:27:23;;;;;;;5.87;4.80;;;17.00;99.90;;;;;;5055714;28;20177;-81
2023/06/12 01:30:08;;;;;;;5.10;4.60;;;17.00;99.90;;;;;;5037274;28;20201;-80
2023/06/12 01:32:37;;;;;;;5.70;5.20;;;17.10;1.00;;;;;;5055643;28;20154;-80
2023/06/12 01:35:13;;;;;;;5.47;4.97;;;17.00;99.90;;;;;;5037669;28;20210;-80
2023/06/12 01:37:49;;;;;;;5.17;4.67;;;16.70;1.00;;;;;;5055734;28;20156;-80
2023/06/12 01:40:17;;;;;;;6.07;4.77;;;16.80;99.90;;;;;;5055876;28;20164;-80
2023/06/12 01:42:42;;;;;;;5.30;4.80;;;16.70;1.00;;;;;;5037711;28;20259;-79
2023/06/12 01:45:08;;;;;;;7.93;5.47;;;16.60;1.00;;;;;;5055281;28;20202;-80
2023/06/12 01:47:34;;;;;;;5.60;5.10;;;16.60;1.00;;;;;;5055504;28;20178;-80
2023/06/12 01:50:05;;;;;;;5.80;4.73;;;16.70;1.00;;;;;;5055466;28;20205;-79
2023/06/12 01:52:32;;;;;;;5.23;4.73;;;16.70;1.00;;;;;;5038038;28;20169;-80
2023/06/12 01:54:58;;;;;;;5.73;4.90;;;16.70;1.00;;;;;;5037088;28;20211;-80
2023/06/12 01:57:24;;;;;;;5.30;4.80;;;16.70;1.00;;;;;;5037975;28;20169;-80
2023/06/12 01:59:53;;;;;;;6.73;4.80;;;16.60;1.00;;;;;;5037652;28;20181;-80
2023/06/12 02:02:20;;;;;;;5.93;4.97;;;16.60;99.90;;;;;;5055492;28;20174;-80
2023/06/12 02:04:46;;;;;;;5.60;5.00;;;16.60;99.90;;;;;;5055368;28;20197;-81
2023/06/12 02:07:12;;;;;;;5.47;4.97;;;16.60;99.90;;;;;;5036991;28;20176;-81
2023/06/12 02:09:37;;;;;;;6.40;4.97;;;16.60;1.00;;;;;;5036873;28;20198;-79
2023/06/12 02:12:03;;;;;;;6.70;4.77;;;16.40;1.00;;;;;;5054823;28;20169;-80
2023/06/12 02:14:29;;;;;;;5.40;5.00;;;16.30;99.90;;;;;;5055255;28;20190;-80
2023/06/12 02:16:55;;;;;;;5.37;4.87;;;16.20;1.00;;;;;;5037346;28;20169;-80
2023/06/12 02:19:28;;;;;;;5.23;4.73;;;16.20;99.90;;;;;;5037456;28;20181;-81
2023/06/12 02:21:55;;;;;;;5.43;4.63;;;16.20;99.90;;;;;;5048057;28;20212;-80
2023/06/12 02:24:25;;;;;;;5.03;4.53;;;16.10;1.00;;;;;;5074788;28;20192;-80
2023/06/12 02:26:51;;;;;;;5.10;4.57;;;16.10;99.90;;;;;;5075298;28;20176;-80
2023/06/12 02:29:17;;;;;;;5.73;5.23;;;16.10;99.90;;;;;;5074762;28;20200;-80
2023/06/12 02:31:42;;;;;;;5.73;4.57;;;16.10;1.00;;;;;;5056337;28;20222;-80
2023/06/12 02:34:08;;;;;;;5.37;4.87;;;16.10;99.90;;;;;;5056864;28;20192;-80
2023/06/12 02:36:33;;;;;;;5.57;4.90;;;16.10;99.90;;;;;;5057055;28;20173;-80
2023/06/12 02:39:01;;;;;;;5.33;4.83;;;16.00;1.00;;;;;;5056998;28;20194;-80
2023/06/12 02:41:27;;;;;;;6.63;5.30;;;15.90;99.90;;;;;;5074624;28;20264;-80
2023/06/12 02:43:53;;;;;;;7.53;4.93;;;16.10;99.90;;;;;;5075068;28;20250;-78
2023/06/12 02:46:18;;;;;;;7.00;5.20;;;16.10;99.90;;;;;;5074452;28;20180;-80
2023/06/12 02:48:44;;;;;;;6.07;5.13;;;16.00;1.00;;;;;;5074658;28;20210;-80
2023/06/12 02:51:09;;;;;;;6.67;5.43;;;15.90;99.90;;;;;;5074650;28;20174;-80
2023/06/12 02:53:35;;;;;;;5.77;4.77;;;15.70;1.00;;;;;;5056391;28;20204;-80
2023/06/12 02:56:00;;;;;;;5.63;4.97;;;15.60;1.00;;;;;;5056479;28;20536;-80
2023/06/12 02:58:27;;;;;;;6.20;5.50;;;15.50;99.90;;;;;;5056450;28;20188;-80
2023/06/12 03:00:52;;;;;;;5.30;4.80;;;15.40;4.50;;;;;;5074023;28;20254;-80
2023/06/12 03:03:20;;;;;;;5.83;5.23;;;15.40;1.00;;;;;;5074615;28;20287;-80
2023/06/12 03:05:46;;;;;;;5.90;5.30;;;15.40;99.90;;;;;;5056724;28;20177;-81
2023/06/12 03:08:13;;;;;;;5.77;5.20;;;15.40;99.90;;;;;;5056503;28;20196;-80
2023/06/12 03:10:39;;;;;;;6.20;5.60;;;15.40;99.90;;;;;;5073851;28;20208;-80
2023/06/12 03:13:05;;;;;;;6.23;5.47;;;15.50;99.90;;;;;;5073973;28;20165;-81
2023/06/12 03:15:31;;;;;;;6.00;5.40;;;15.50;99.90;;;;;;5052185;28;20192;-80
2023/06/12 03:17:56;;;;;;;6.00;5.33;;;15.50;46.90;;;;;;5047743;28;20200;-79
2023/06/12 03:20:24;;;;;;;5.53;5.03;;;15.20;99.90;;;;;;5055921;28;20169;-80
2023/06/12 03:22:50;;;;;;;6.70;5.60;;;15.10;1.00;;;;;;5055877;28;20169;-80
2023/06/12 03:25:18;;;;;;;7.67;5.87;;;15.10;99.90;;;;;;5074096;28;20242;-79
2023/06/12 03:27:45;;;;;;;6.57;5.80;;;15.00;99.90;;;;;;5055855;28;20187;-79
2023/06/12 03:30:11;;;;;;;6.67;5.97;;;15.00;99.90;;;;;;5055714;28;20197;-80
2023/06/12 03:32:37;;;;;;;7.30;5.70;;;15.00;1.00;;;;;;5056214;28;20165;-79
2023/06/12 03:35:03;;;;;;;6.27;5.67;;;15.00;1.00;;;;;;5073616;28;20204;-80
2023/06/12 03:37:28;;;;;;;6.30;5.63;;;15.00;33.10;;;;;;5075566;28;20173;-80
2023/06/12 03:39:54;;;;;;;6.20;5.53;;;14.90;99.90;;;;;;5059339;28;20260;-80
2023/06/12 03:42:20;;;;;;;8.33;6.10;;;14.90;99.90;;;;;;5059462;28;20177;-80
2023/06/12 03:44:46;;;;;;;6.37;5.70;;;14.70;1.00;;;;;;5076925;28;20189;-80
2023/06/12 03:47:11;;;;;;;6.20;5.60;;;14.80;1.00;;;;;;5059616;28;20576;-80
2023/06/12 03:49:38;;;;;;;6.40;5.80;;;14.70;1.00;;;;;;5077028;28;20193;-79
2023/06/12 03:52:04;;;;;;;6.40;5.80;;;14.80;1.00;;;;;;5058984;28;20173;-80
2023/06/12 03:54:30;;;;;;;6.50;5.90;;;14.90;90.50;;;;;;5077006;28;20750;-80
2023/06/12 03:56:56;;;;;;;6.57;5.70;;;15.00;1.00;;;;;;5059245;28;20169;-80
2023/06/12 03:59:21;;;;;;;6.07;5.30;;;14.90;26.50;;;;;;5058901;28;20200;-80
2023/06/12 04:01:48;;;;;;;6.43;5.83;;;14.80;1.00;;;;;;5059370;28;20179;-80
2023/06/12 04:04:14;;;;;;;6.63;5.20;;;14.80;1.00;;;;;;5077703;28;20303;-79
2023/06/12 04:06:40;;;;;;;6.50;5.90;;;14.80;99.90;;;;;;5077030;28;20177;-80
2023/06/12 04:09:12;;;;;;;6.50;5.80;;;14.70;1.00;;;;;;5076974;28;20196;-80
2023/06/12 04:11:39;;;;;;;6.03;5.43;;;14.80;30.00;;;;;;5058947;28;20168;-80
2023/06/12 04:14:05;;;;;;;6.77;5.83;;;14.90;1.00;;;;;;5076920;28;20196;-80
2023/06/12 04:16:31;;;;;;;6.57;5.90;;;14.70;99.90;;;;;;5077173;28;20231;-81
2023/06/12 04:18:57;;;;;;;6.60;6.00;;;14.90;90.40;;;;;;5076935;28;20185;-80
2023/06/12 04:21:23;;;;;;;5.63;5.13;;;15.00;99.90;;;;;;5058755;28;20173;-80
2023/06/12 04:23:49;;;;;;;5.70;5.10;;;15.00;99.90;;;;;;5076972;28;20246;-80
2023/06/12 04:26:15;;;;;;;5.73;5.17;;;15.00;1.00;;;;;;5058703;28;20173;-80
2023/06/12 04:28:41;;;;;;;5.73;5.23;;;15.00;99.90;;;;;;5076821;28;20192;-80
2023/06/12 04:31:07;;;;;;;5.47;4.97;;;15.00;1.00;;;;;;5058343;28;20173;-80
2023/06/12 04:33:35;;;;;;;7.17;5.20;;;14.90;99.90;;;;;;5058628;28;20223;-80
2023/06/12 04:36:03;;;;;;;5.90;5.33;;;14.90;1.00;;;;;;5076578;28;20161;-79
2023/06/12 04:38:31;;;;;;;6.30;5.70;;;14.90;1.00;;;;;;5076312;28;20252;-80
2023/06/12 04:41:00;;;;;;;6.00;5.40;;;15.00;1.00;;;;;;5076153;28;20628;-80
2023/06/12 04:43:26;;;;;;;6.73;5.80;;;15.00;1.00;;;;;;5075362;28;20647;-80
2023/06/12 04:45:53;;;;;;;6.83;6.07;;;15.10;1.00;;;;;;5057090;28;20177;-80
2023/06/12 04:48:19;;;;;;;6.20;5.60;;;15.20;1.00;;;;;;5056152;28;20222;-80
2023/06/12 04:50:48;;;;;;;7.47;5.70;;;15.20;1.00;;;;;;5056469;28;20285;-78
2023/06/12 04:53:17;;;;;;;6.53;5.83;;;15.30;1.00;;;;;;5056624;28;20182;-78
2023/06/12 04:55:50;;;;;;;6.77;6.07;;;15.40;99.90;;;;;;5074599;28;20201;-81
2023/06/12 04:58:17;;;;;;;7.40;6.50;;;15.50;99.90;;;;;;5075112;28;20515;-80
2023/06/12 05:00:47;;;;;;;9.43;6.00;;;15.60;1.00;;;;;;5074314;28;20208;-80
2023/06/12 05:03:16;;;;;;;7.17;6.47;;;15.80;53.80;;;;;;5074651;28;20535;-80
2023/06/12 05:05:42;;;;;;;7.00;6.00;;;15.90;1.00;;;;;;5074822;28;20204;-81
2023/06/12 05:08:08;;;;;;;6.40;5.80;;;15.90;1.00;;;;;;5074824;28;20231;-81
2023/06/12 05:10:33;;;;;;;6.93;6.30;;;15.90;1.00;;;;;;5075003;28;20205;-81
2023/06/12 05:12:59;;;;;;;7.20;6.50;;;16.00;1.00;;;;;;5057225;28;20260;-81
2023/06/12 05:15:24;;;;;;;7.30;6.60;;;16.00;99.90;;;;;;5075408;28;20193;-82
2023/06/12 05:17:50;;;;;;;8.17;6.60;;;16.00;1.00;;;;;;5074606;28;20226;-82
2023/06/12 05:20:15;;;;;;;7.63;6.90;;;16.00;98.90;;;;;;5056138;28;20245;-82
2023/06/12 05:22:41;;;;;;;7.37;6.67;;;16.00;1.00;;;;;;5074259;28;20177;-82
2023/06/12 05:25:07;;;;;;;6.57;5.90;;;16.00;1.00;;;;;;5055845;28;20224;-82
2023/06/12 05:27:33;;;;;;;6.73;6.13;;;16.10;99.90;;;;;;5055741;28;20180;-83
2023/06/12 05:29:59;;;;;;;5.73;5.10;;;16.20;1.00;;;;;;5056557;28;20197;-81
2023/06/12 05:32:25;;;;;;;6.17;5.07;;;17.40;1.00;;;;;;5056856;28;20168;-80
2023/06/12 05:34:51;;;;;;;5.27;4.77;;;17.80;1.00;;;;;;5056280;28;20527;-82
2023/06/12 05:37:17;;;;;;;5.30;4.80;;;19.00;1.00;;;;;;5074215;28;20165;-81
2023/06/12 05:39:42;;;;;;;6.40;5.50;;;19.40;99.90;;;;;;5056415;28;20257;-81
2023/06/12 05:42:08;;;;;;;6.07;5.23;;;19.20;1.00;;;;;;5074310;28;20165;-82
2023/06/12 05:44:33;;;;;;;5.20;4.70;;;19.40;99.90;;;;;;5073372;28;20766;-80
2023/06/12 05:46:59;;;;;;;5.57;4.60;;;19.30;78.20;;;;;;5057284;28;20179;-79
2023/06/12 05:49:25;;;;;;;6.30;4.90;;;19.90;99.90;;;;;;5074880;28;20193;-82
2023/06/12 05:51:51;;;;;;;5.30;4.80;;;20.00;99.90;;;;;;5053991;28;20185;-83
2023/06/12 05:54:16;;;;;;;5.97;5.40;;;20.20;1.00;;;;;;5063769;28;20711;-83
2023/06/12 05:56:42;;;;;;;5.70;5.10;;;20.20;99.90;;;;;;5075515;28;20581;-83
2023/06/12 05:59:08;;;;;;;5.70;5.10;;;20.30;99.90;;;;;;5073669;28;20177;-82
2023/06/12 06:01:34;;;;;;;5.72;5.22;;;20.50;59.80;;;;;;5075368;28;20170;-82
2023/06/12 06:04:00;;;;;;;7.85;5.80;;;20.90;1.00;;;;;;5075166;28;20193;-81
2023/06/12 06:06:25;;;;;;;5.70;5.07;;;21.10;1.00;;;;;;5076104;28;20578;-82
2023/06/12 06:08:51;;;;;;;6.15;5.20;;;21.20;1.00;;;;;;5076714;28;20195;-81
2023/06/12 06:11:16;;;;;;;6.20;5.60;;;21.30;1.00;;;;;;5074775;28;20196;-80
2023/06/12 06:13:43;;;;;;;6.60;5.28;;;21.40;1.00;;;;;;5075289;28;20629;-79
2023/06/12 06:16:10;;;;;;;7.97;6.10;;;21.30;1.00;;;;;;5076051;28;20237;-80
2023/06/12 06:18:37;;;;;;;5.60;5.15;;;21.20;1.00;;;;;;5076538;28;20169;-80
2023/06/12 06:21:03;;;;;;;7.20;5.68;;;21.40;1.00;;;;;;5076135;28;20256;-80
2023/06/12 06:23:29;;;;;;;6.57;5.80;;;21.00;72.00;;;;;;5058031;28;20200;-80
2023/06/12 06:25:54;;;;;;;6.90;5.78;;;20.90;99.90;;;;;;5076420;28;20226;-80
2023/06/12 06:28:20;;;;;;;6.25;5.65;;;21.20;99.90;;;;;;5076100;28;20165;-80
2023/06/12 06:30:46;;;;;;;6.32;5.72;;;21.10;99.90;;;;;;5076333;28;20188;-80
2023/06/12 06:33:11;;;;;;;6.45;5.85;;;21.00;99.90;;;;;;5058829;28;20165;-80
2023/06/12 06:35:37;;;;;;;6.22;5.22;;;20.80;99.90;;;;;;5076189;28;20187;-78
2023/06/12 06:38:02;;;;;;;6.30;5.70;;;20.90;99.90;;;;;;5057952;28;20165;-80
2023/06/12 06:40:28;;;;;;;6.32;5.75;;;21.20;99.90;;;;;;5076198;28;20173;-80
2023/06/12 06:42:53;;;;;;;7.90;4.97;;;21.30;99.90;;;;;;5076913;28;20200;-80
2023/06/12 06:45:19;;;;;;;7.07;5.75;;;21.30;59.00;;;;;;5076182;28;20207;-79
2023/06/12 06:47:45;;;;;;;6.43;5.53;;;21.50;99.90;;;;;;5058086;28;20260;-80
2023/06/12 06:50:11;;;;;;;5.40;4.90;;;21.60;1.00;;;;;;5057348;28;20201;-80
2023/06/12 06:52:37;;;;;;;6.15;5.55;;;21.80;1.00;;;;;;5057881;28;20173;-77
2023/06/12 06:55:02;;;;;;;5.53;5.03;;;21.80;1.00;;;;;;5059410;28;20350;-80
2023/06/12 06:57:28;;;;;;;6.40;5.38;;;21.80;99.90;;;;;;5075761;28;20177;-81
2023/06/12 06:59:55;;;;;;;6.18;5.57;;;21.80;99.90;;;;;;5075377;28;20169;-80
2023/06/12 07:02:21;;;;;;;5.80;5.20;;;21.80;1.00;;;;;;5075518;28;20173;-80
2023/06/12 07:04:48;;;;;;;6.18;5.57;;;21.50;1.00;;;;;;5057728;28;20193;-80
2023/06/12 07:07:14;;;;;;;6.00;5.43;;;21.40;1.00;;;;;;5057780;28;20201;-80
2023/06/12 07:09:39;;;;;;;6.30;5.47;;;21.30;1.00;;;;;;5075456;28;20199;-80
2023/06/12 07:12:05;;;;;;;6.85;5.57;;;21.30;1.00;;;;;;5058460;28;20172;-81
2023/06/12 07:14:31;;;;;;;7.03;5.28;;;21.30;99.90;;;;;;5060758;28;20189;-80
2023/06/12 07:16:56;;;;;;;6.07;5.28;;;21.40;23.30;;;;;;5079234;28;20203;-81
2023/06/12 07:19:22;;;;;;;6.35;5.57;;;21.40;1.00;;;;;;5061355;28;20173;-79
2023/06/12 07:21:48;;;;;;;6.82;5.22;;;21.40;99.90;;;;;;5079495;28;20192;-80
2023/06/12 07:24:17;;;;;;;6.00;4.78;;;21.50;1.00;;;;;;5061648;28;20193;-80
2023/06/12 07:26:43;;;;;;;5.70;4.90;;;21.70;99.90;;;;;;5061325;28;20173;-80
2023/06/12 07:29:10;;;;;;;6.10;5.38;;;21.90;1.00;;;;;;5079607;28;20224;-80
2023/06/12 07:31:36;;;;;;;5.45;4.95;;;22.00;99.90;;;;;;5060918;28;20165;-80
2023/06/12 07:34:02;;;;;;;6.18;5.03;;;22.30;1.00;;;;;;5079468;28;20192;-81
2023/06/12 07:36:31;;;;;;;6.32;5.03;;;22.40;22.40;;;;;;5078717;28;20193;-81
2023/06/12 07:38:57;;;;;;;5.57;4.97;;;22.40;99.90;;;;;;5061128;28;20183;-80
2023/06/12 07:41:22;;;;;;;4.90;4.40;;;22.60;99.90;;;;;;5060255;28;20196;-80
2023/06/12 07:43:48;;;;;;;5.82;4.55;;;22.70;1.00;;;;;;5078117;28;20192;-80
2023/06/12 07:46:15;;;;;;;5.35;4.85;;;22.90;1.00;;;;;;5078866;28;20177;-80
2023/06/12 07:48:41;;;;;;;5.05;4.40;;;23.00;1.00;;;;;;5078579;28;20188;-80
2023/06/12 07:51:07;;;;;;;5.25;4.57;;;23.10;1.00;;;;;;5078434;28;20165;-81
2023/06/12 07:53:32;;;;;;;5.32;4.82;;;23.10;1.00;;;;;;5060130;28;20180;-80
2023/06/12 07:55:58;;;;;;;5.07;4.60;;;23.30;1.00;;;;;;5060546;28;20166;-80
2023/06/12 07:58:24;;;;;;;4.90;4.50;;;23.40;1.00;;;;;;5078512;28;20631;-80
2023/06/12 08:00:54;;;;;;;7.65;4.43;;;23.40;99.90;;;;;;5078272;28;20161;-80
2023/06/12 08:03:24;;;;;;;5.40;4.88;;;23.40;99.90;;;;;;5078614;28;20198;-80
2023/06/12 08:05:53;;;;;;;5.05;4.55;;;23.40;1.00;;;;;;5078577;28;20175;-79
2023/06/12 08:08:18;;;;;;;4.97;4.50;;;23.50;1.00;;;;;;5060908;28;20709;-80
2023/06/12 08:10:44;;;;;;;5.40;4.18;;;23.60;99.90;;;;;;5060216;28;20193;-80
2023/06/12 08:13:10;;;;;;;5.43;4.45;;;23.70;99.90;;;;;;5060436;28;20173;-79
2023/06/12 08:15:36;;;;;;;4.95;4.55;;;23.70;99.90;;;;;;5060625;28;20557;-80
2023/06/12 08:18:01;;;;;;;6.22;4.50;;;23.90;99.90;;;;;;5060135;28;20195;-79
2023/06/12 08:20:30;;;;;;;5.45;4.50;;;24.10;99.90;;;;;;5060049;28;20546;-81
2023/06/12 08:22:59;;;;;;;5.25;4.72;;;24.20;99.90;;;;;;5077523;28;20181;-80
2023/06/12 08:25:25;;;;;;;5.43;4.47;;;24.20;99.90;;;;;;5077512;28;20192;-80
2023/06/12 08:27:51;;;;;;;6.13;4.55;;;24.40;99.90;;;;;;5077580;28;20177;-81
2023/06/12 08:30:17;;;;;;;4.43;4.03;;;24.40;99.90;;;;;;5059489;28;20261;-81
2023/06/12 08:32:42;;;;;;;5.10;4.60;;;24.40;99.90;;;;;;5078109;28;20237;-80
2023/06/12 08:35:08;;;;;;;5.00;4.50;;;24.50;99.90;;;;;;5059432;28;20196;-80
2023/06/12 08:37:34;;;;;;;5.75;4.85;;;24.40;99.90;;;;;;5078050;28;20188;-81
2023/06/12 08:40:00;;;;;;;4.88;4.28;;;24.50;99.90;;;;;;5059591;28;20179;-79
2023/06/12 08:42:26;;;;;;;4.88;4.28;;;24.50;99.90;;;;;;5077230;28;20181;-80
2023/06/12 08:45:01;;;;;;;6.68;4.35;;;24.50;99.90;;;;;;5059703;28;20193;-81
2023/06/12 08:47:32;;;;;;;5.47;4.20;;;24.60;99.90;;;;;;5060034;28;20165;-81
2023/06/12 08:49:58;;;;;;;4.93;4.47;;;24.40;99.90;;;;;;5059915;28;20195;-80
2023/06/12 08:52:24;;;;;;;5.10;4.55;;;24.20;99.90;;;;;;5059904;28;20205;-81
2023/06/12 08:54:51;;;;;;;7.50;4.57;;;24.30;99.90;;;;;;5059190;28;20263;-81
2023/06/12 08:57:19;;;;;;;4.60;4.20;;;24.60;99.90;;;;;;5077363;28;20177;-80
2023/06/12 08:59:44;;;;;;;5.90;4.30;;;24.50;99.90;;;;;;5059088;28;20241;-81
2023/06/12 09:02:11;;;;;;;4.80;4.10;;;24.60;99.90;;;;;;5076927;28;20169;-81
2023/06/12 09:04:56;;;;;;;5.35;4.50;;;24.90;99.90;;;;;;5058953;28;20565;-80
2023/06/12 09:07:22;;;;;;;5.25;4.30;;;25.20;99.90;;;;;;5058361;28;20171;-82
2023/06/12 09:09:47;;;;;;;5.15;4.13;;;25.10;99.90;;;;;;5056931;28;20197;-82
2023/06/12 09:12:15;;;;;;;4.88;4.38;;;25.30;99.90;;;;;;5056981;28;20636;-82
2023/06/12 09:14:41;;;;;;;5.07;4.30;;;25.40;99.90;;;;;;5075218;28;20189;-82
2023/06/12 09:17:08;;;;;;;4.78;4.38;;;25.30;99.90;;;;;;5057380;28;20173;-82
2023/06/12 09:19:43;;;;;;;4.75;4.20;;;25.50;99.90;;;;;;5056706;28;20611;-82
2023/06/12 09:22:09;;;;;;;5.75;4.07;;;25.50;99.90;;;;;;5058258;28;20222;-82
2023/06/12 09:24:34;;;;;;;5.95;4.25;;;25.70;99.90;;;;;;5074635;28;20189;-82
2023/06/12 09:27:01;;;;;;;4.53;4.10;;;26.00;99.90;;;;;;5064195;28;20231;-82
2023/06/12 09:29:42;;;;;;;5.03;4.63;;;26.20;99.90;;;;;;5056591;28;20573;-82
2023/06/12 09:32:11;;;;;;;4.35;3.95;;;26.20;99.90;;;;;;5056779;28;20536;-82
2023/06/12 09:34:37;;;;;;;4.93;4.43;;;26.20;99.90;;;;;;5075971;28;20185;-82
2023/06/12 09:37:08;;;;;;;4.85;4.35;;;26.30;99.90;;;;;;5056828;28;20165;-78
2023/06/12 09:39:34;;;;;;;4.78;4.18;;;26.40;99.90;;;;;;5055934;28;20256;-79
2023/06/12 09:42:01;;;;;;;4.70;4.30;;;26.30;99.90;;;;;;5055231;28;20256;-78
2023/06/12 09:44:30;;;;;;;4.47;3.95;;;25.90;99.90;;;;;;5056418;28;20571;-78
2023/06/12 09:47:01;;;;;;;4.57;4.05;;;25.50;99.90;;;;;;5055393;28;20180;-79
2023/06/12 09:49:27;;;;;;;4.90;4.35;;;25.70;99.90;;;;;;5074581;28;20203;-80
2023/06/12 09:51:56;;;;;;;5.35;4.40;;;25.80;99.90;;;;;;5057626;28;20169;-80
2023/06/12 09:54:22;;;;;;;5.18;4.45;;;26.00;99.90;;;;;;5057288;28;20236;-79
2023/06/12 09:56:53;;;;;;;4.88;4.38;;;26.00;99.90;;;;;;5058793;28;20169;-80
2023/06/12 09:59:21;;;;;;;4.90;4.40;;;26.10;99.90;;;;;;5057994;28;20197;-77
2023/06/12 10:01:51;;;;;;;5.07;4.68;;;26.40;99.90;;;;;;5075950;28;20264;-81
2023/06/12 10:04:30;;;;;;;4.70;4.30;;;26.50;99.90;;;;;;5075720;28;20279;-79
2023/06/12 10:07:06;;;;;;;6.28;4.32;;;26.80;99.90;;;;;;5056672;28;20214;-79
2023/06/12 10:09:32;;;;;;;4.60;4.20;;;26.70;99.90;;;;;;5073821;28;20180;-80
2023/06/12 10:12:00;;;;;;;6.15;4.40;;;26.90;99.90;;;;;;5055814;28;20173;-78
2023/06/12 10:14:29;;;;;;;5.57;4.40;;;27.00;99.90;;;;;;5073343;28;20257;-79
2023/06/12 10:16:56;;;;;;;7.72;4.57;;;27.10;99.90;;;;;;5073785;28;20644;-79
2023/06/12 10:19:25;;;;;;;4.85;4.45;;;27.30;99.90;;;;;;5056221;28;20712;-80
2023/06/12 10:21:54;;;;;;;4.45;4.05;;;27.30;99.90;;;;;;5074948;28;20185;-79
2023/06/12 10:24:21;;;;;;;4.25;3.85;;;27.10;99.90;;;;;;5057660;28;20586;-80
2023/06/12 10:26:50;;;;;;;4.43;4.03;;;27.00;99.90;;;;;;5057309;28;20199;-80
2023/06/12 10:29:29;;;;;;;4.60;4.07;;;27.40;99.90;;;;;;5074111;28;20556;-84
2023/06/12 10:32:06;;;;;;;5.55;4.60;;;27.50;99.90;;;;;;5073014;28;20160;-84
2023/06/12 10:34:34;;;;;;;4.47;4.07;;;27.50;99.90;;;;;;5073290;28;20188;-83
2023/06/12 10:37:19;;;;;;;4.65;4.25;;;27.40;99.90;;;;;;5073537;28;20164;-83
2023/06/12 10:39:46;;;;;;;5.38;3.65;;;27.40;99.90;;;;;;5073662;28;20204;-83
2023/06/12 10:42:12;;;;;;;5.68;3.90;;;27.10;99.90;;;;;;5051812;28;20177;-83
2023/06/12 10:44:45;;;;;;;4.38;3.85;;;27.00;99.90;;;;;;5055706;28;20270;-84
2023/06/12 10:47:23;;;;;;;7.03;3.55;;;26.70;99.90;;;;;;5056585;28;20169;-83
2023/06/12 10:49:56;;;;;;;4.05;3.65;;;27.10;99.90;;;;;;5059528;28;20207;-83
2023/06/12 10:52:22;;;;;;;4.07;3.70;;;27.50;99.90;;;;;;5077648;28;20650;-83
2023/06/12 10:55:08;;;;;;;3.70;3.40;;;27.30;99.90;;;;;;5059256;28;20709;-83
2023/06/12 10:57:35;;;;;;;4.72;3.65;;;26.90;99.90;;;;;;5076202;28;20189;-82
2023/06/12 11:00:02;;;;;;;3.80;3.47;;;27.40;99.90;;;;;;5076549;28;20551;-84
2023/06/12 11:02:28;;;;;;;3.55;3.25;;;27.60;99.90;;;;;;5076769;28;20667;-83
2023/06/12 11:04:54;;;;;;;3.58;3.28;;;27.90;99.90;;;;;;5058759;28;20193;-83
2023/06/12 11:07:20;;;;;;;4.93;3.53;;;28.40;99.90;;;;;;5058600;28;20682;-83
2023/06/12 11:09:45;;;;;;;4.30;3.50;;;28.30;92.40;;;;;;5076380;28;20200;-83
2023/06/12 11:12:11;;;;;;;3.60;3.30;;;28.40;92.30;;;;;;5076645;28;20169;-83
2023/06/12 11:14:37;;;;;;;3.70;3.40;;;28.60;92.50;;;;;;5076434;28;20188;-82
2023/06/12 11:17:02;;;;;;;4.07;3.38;;;28.40;82.80;;;;;;5058728;28;20184;-82
2023/06/12 11:19:28;;;;;;;4.65;3.47;;;28.20;97.40;;;;;;5058659;28;20172;-81
2023/06/12 11:21:55;;;;;;;3.92;3.50;;;28.30;74.00;;;;;;5058583;28;20173;-82
2023/06/12 11:24:22;;;;;;;5.18;3.78;;;28.40;72.40;;;;;;5058805;28;20689;-82
2023/06/12 11:26:51;;;;;;;3.88;3.47;;;28.30;71.20;;;;;;5076828;28;20176;-81
2023/06/12 11:29:18;;;;;;;3.85;3.55;;;28.70;73.10;;;;;;5076604;28;20192;-82
2023/06/12 11:32:04;;;;;;;4.47;3.60;;;28.60;68.60;;;;;;5058362;28;20191;-82
2023/06/12 11:34:36;;;;;;;5.45;3.35;;;28.60;62.20;;;;;;5076384;28;20188;-80
2023/06/12 11:37:17;;;;;;;3.58;3.28;;;28.80;63.20;;;;;;5058005;28;20169;-82
2023/06/12 11:39:43;;;;;;;5.03;3.55;;;28.70;53.50;;;;;;5076331;28;20264;-82
2023/06/12 11:42:10;;;;;;;3.80;3.40;;;28.90;53.40;;;;;;5058448;28;20180;-82
2023/06/12 11:44:36;;;;;;;3.58;3.28;;;29.30;60.30;;;;;;5058295;28;20787;-82
2023/06/12 11:47:02;;;;;;;4.18;3.58;;;28.80;52.60;;;;;;5058512;28;20173;-80
2023/06/12 11:49:31;;;;;;;4.45;3.60;;;28.40;55.20;;;;;;5058049;28;20216;-82
2023/06/12 11:51:58;;;;;;;4.32;3.55;;;28.60;56.90;;;;;;5075795;28;20185;-82
2023/06/12 11:54:24;;;;;;;3.97;3.58;;;29.20;53.30;;;;;;5076878;28;20683;-83
2023/06/12 11:56:50;;;;;;;3.92;3.53;;;29.20;53.20;;;;;;5076029;28;20169;-82
2023/06/12 11:59:16;;;;;;;4.10;3.70;;;28.70;50.40;;;;;;5057424;28;20210;-82
2023/06/12 12:01:45;;;;;;;4.43;3.60;;;28.80;52.90;;;;;;5075724;28;20644;-79
2023/06/12 12:04:11;;;;;;;4.03;3.63;;;29.00;48.30;;;;;;5074804;28;20563;-79
2023/06/12 12:06:51;;;;;;;5.60;3.50;;;29.20;48.30;;;;;;5075274;28;20176;-79
2023/06/12 12:09:27;;;;;;;3.97;3.60;;;29.30;42.40;;;;;;5056921;28;20687;-81
2023/06/12 12:11:53;;;;;;;3.53;3.20;;;29.40;42.80;;;;;;5057726;28;20255;-83
2023/06/12 12:14:19;;;;;;;4.30;3.50;;;29.90;42.30;;;;;;5076243;28;20200;-83
2023/06/12 12:16:45;;;;;;;3.55;3.25;;;29.90;37.40;;;;;;5057779;28;20169;-83
2023/06/12 12:19:29;;;;;;;4.03;3.55;;;30.00;33.60;;;;;;5075841;28;20177;-82
2023/06/12 12:21:56;;;;;;;4.03;3.40;;;30.20;36.90;;;;;;5076050;28;20650;-82
2023/06/12 12:24:22;;;;;;;3.90;3.60;;;29.80;26.70;;;;;;5057949;28;20280;-82
2023/06/12 12:26:50;;;;;;;3.78;3.47;;;30.10;24.90;;;;;;5059020;28;20648;-83
2023/06/12 12:29:20;;;;;;;4.82;3.25;;;30.30;27.70;;;;;;5057679;28;20197;-79
2023/06/12 12:31:45;;;;;;;3.50;3.20;;;30.60;28.20;;;;;;5056690;28;20169;-82
2023/06/12 12:34:11;;;;;;;5.85;3.60;;;30.70;23.70;;;;;;5057821;28;20199;-82
2023/06/12 12:36:38;;;;;;;3.88;3.40;;;30.90;21.90;;;;;;5076106;28;20200;-80
2023/06/12 12:39:03;;;;;;;4.38;3.60;;;30.90;18.20;;;;;;5057767;28;20169;-81
2023/06/12 12:41:29;;;;;;;3.60;3.20;;;30.60;16.70;;;;;;5075420;28;20223;-81
2023/06/12 12:43:55;;;;;;;4.80;3.25;;;30.50;18.50;;;;;;5059246;28;20203;-80
2023/06/12 12:46:24;;;;;;;6.07;3.40;;;30.20;16.80;;;;;;5065098;28;20185;-81
2023/06/12 12:48:51;;;;;;;3.83;3.17;;;29.80;13.70;;;;;;5074213;28;20173;-81
2023/06/12 12:51:17;;;;;;;3.47;3.17;;;30.00;18.90;;;;;;5074765;28;20180;-81